Time;durP1;ratioP1;P1;durP2;ratioP2;P2;SDS_P1;SDS_P2;PMS_P1;PMS_P2;Temp;Humidity;BMP_temperature;BMP_pressure;BME280_temperature;BME280_humidity;BME280_pressure;Samples;Min_cycle;Max_cycle;Signal;HPM_P1;HPM_P2
2022/02/19 00:00:42;;;;;;;1.95;0.40;;;;;;;6.08;63.38;95783.72;4823650;29;20051;-80
2022/02/19 00:03:09;;;;;;;1.30;0.35;;;;;;;6.08;63.73;95778.31;4823882;29;20145;-80
2022/02/19 00:05:37;;;;;;;2.00;0.57;;;;;;;6.03;62.40;95775.72;4824344;29;20046;-81
2022/02/19 00:08:05;;;;;;;2.28;0.40;;;;;;;6.05;62.33;95772.72;4822438;29;20122;-80
2022/02/19 00:10:33;;;;;;;2.28;0.90;;;;;;;6.04;63.92;95781.94;4824371;29;20046;-79
2022/02/19 00:13:00;;;;;;;3.53;0.70;;;;;;;5.99;65.13;95780.94;4843953;29;20054;-79
2022/02/19 00:15:29;;;;;;;2.92;0.50;;;;;;;5.90;66.39;95771.94;4850097;29;20521;-80
2022/02/19 00:17:56;;;;;;;0.95;0.55;;;;;;;5.80;67.32;95772.13;4823809;29;20053;-80
2022/02/19 00:20:23;;;;;;;2.08;0.50;;;;;;;5.74;67.66;95776.03;4822883;29;20498;-79
2022/02/19 00:22:50;;;;;;;4.03;0.57;;;;;;;5.76;69.66;95768.44;4838982;29;20133;-80
2022/02/19 00:25:20;;;;;;;2.25;0.43;;;;;;;5.76;66.82;95781.94;4826488;29;20042;-81
2022/02/19 00:27:51;;;;;;;1.08;0.40;;;;;;;5.71;65.76;95800.94;4823592;29;20062;-81
2022/02/19 00:30:18;;;;;;;1.85;0.28;;;;;;;5.74;65.38;95803.03;4799559;29;20086;-80
2022/02/19 00:32:46;;;;;;;0.80;0.22;;;;;;;5.73;66.72;95782.53;4826209;29;20054;-81
2022/02/19 00:35:14;;;;;;;3.60;0.40;;;;;;;5.69;65.58;95782.34;4832338;29;20514;-81
2022/02/19 00:37:40;;;;;;;2.28;0.60;;;;;;;5.69;65.78;95800.44;4827804;29;20513;-80
2022/02/19 00:40:08;;;;;;;3.55;0.60;;;;;;;5.75;65.48;95796.56;4846983;29;20136;-79
2022/02/19 00:42:35;;;;;;;1.23;0.40;;;;;;;5.80;64.33;95814.56;4839573;29;20050;-81
2022/02/19 00:45:04;;;;;;;1.05;0.40;;;;;;;5.84;61.32;95800.13;4844322;29;20140;-79
2022/02/19 00:47:30;;;;;;;1.60;0.40;;;;;;;5.85;63.92;95800.97;4842209;29;20045;-80
2022/02/19 00:49:57;;;;;;;2.65;0.40;;;;;;;5.84;61.95;95799.34;4849725;29;20524;-80
2022/02/19 00:52:24;;;;;;;3.35;0.52;;;;;;;5.85;61.02;95801.75;4834343;29;20057;-80
2022/02/19 00:54:51;;;;;;;4.85;0.60;;;;;;;5.90;60.93;95811.63;4847132;29;20101;-79
2022/02/19 00:57:18;;;;;;;3.15;0.55;;;;;;;5.91;60.63;95822.19;4840978;29;20046;-80
2022/02/19 00:59:45;;;;;;;0.98;0.40;;;;;;;5.86;60.51;95822.25;4845622;29;20426;-81
2022/02/19 01:02:13;;;;;;;1.55;0.60;;;;;;;5.88;59.74;95817.34;4841668;29;20045;-79
2022/02/19 01:04:39;;;;;;;1.67;0.57;;;;;;;5.90;61.19;95817.88;4847304;29;20681;-80
2022/02/19 01:07:06;;;;;;;1.52;0.50;;;;;;;5.82;60.82;95823.97;4844544;29;20064;-79
2022/02/19 01:09:33;;;;;;;1.05;0.30;;;;;;;5.81;60.54;95833.16;4850656;29;20050;-83
2022/02/19 01:12:00;;;;;;;1.50;0.30;;;;;;;5.78;60.28;95841.06;4837702;29;20050;-80
2022/02/19 01:14:27;;;;;;;2.00;0.50;;;;;;;5.70;60.44;95831.78;4841708;29;20042;-80
2022/02/19 01:16:54;;;;;;;4.57;0.50;;;;;;;5.73;59.39;95836.56;4842583;29;20571;-79
2022/02/19 01:19:22;;;;;;;2.78;0.47;;;;;;;5.69;59.22;95849.06;4842194;29;20046;-80
2022/02/19 01:21:52;;;;;;;1.58;0.20;;;;;;;5.67;59.83;95849.38;4844348;29;20078;-81
2022/02/19 01:24:23;;;;;;;0.73;0.22;;;;;;;5.63;60.13;95842.94;4834297;29;20136;-80
2022/02/19 01:26:51;;;;;;;2.60;0.47;;;;;;;5.63;60.60;95842.16;4849174;29;20050;-80
2022/02/19 01:29:18;;;;;;;1.13;0.40;;;;;;;5.58;61.57;95842.25;4843150;29;20806;-80
2022/02/19 01:31:45;;;;;;;1.17;0.20;;;;;;;5.59;61.30;95851.97;4841772;29;20060;-80
2022/02/19 01:34:12;;;;;;;3.55;0.52;;;;;;;5.58;61.79;95855.75;4843873;29;20060;-80
2022/02/19 01:36:44;;;;;;;3.63;0.60;;;;;;;5.54;61.31;95860.97;4846058;29;20117;-80
2022/02/19 01:39:11;;;;;;;2.65;0.20;;;;;;;5.55;61.47;95861.75;4842939;29;20054;-81
2022/02/19 01:41:40;;;;;;;1.30;0.30;;;;;;;5.55;61.90;95859.84;4834685;29;20395;-80
2022/02/19 01:44:08;;;;;;;1.80;0.50;;;;;;;5.50;62.83;95855.34;4825671;29;20057;-80
2022/02/19 01:46:35;;;;;;;3.83;0.57;;;;;;;5.48;62.92;95857.56;4824458;29;20111;-79
2022/02/19 01:49:05;;;;;;;2.10;0.50;;;;;;;5.53;62.49;95853.13;4824583;29;20050;-80
2022/02/19 01:51:36;;;;;;;8.18;0.88;;;;;;;5.48;62.04;95860.25;4824912;29;20074;-80
2022/02/19 01:54:07;;;;;;;1.65;0.38;;;;;;;5.49;62.62;95842.16;4824637;29;20054;-80
2022/02/19 01:56:34;;;;;;;2.35;0.38;;;;;;;5.47;61.50;95850.53;4818696;29;20062;-80
2022/02/19 01:59:02;;;;;;;3.25;0.60;;;;;;;5.49;60.77;95845.66;4826841;29;20128;-81
2022/02/19 02:01:28;;;;;;;2.58;0.50;;;;;;;5.52;61.10;95848.84;4799015;29;20494;-80
2022/02/19 02:03:55;;;;;;;2.90;0.50;;;;;;;5.54;60.27;95844.75;4822498;29;20046;-79
2022/02/19 02:06:24;;;;;;;1.58;0.50;;;;;;;5.55;59.19;95861.75;4822142;29;20052;-79
2022/02/19 02:08:51;;;;;;;2.50;0.70;;;;;;;5.54;58.97;95849.38;4823661;29;20064;-80
2022/02/19 02:11:19;;;;;;;2.28;0.70;;;;;;;5.58;57.67;95851.16;4825715;29;20057;-80
2022/02/19 02:13:46;;;;;;;2.38;0.50;;;;;;;5.59;58.35;95858.16;4839244;29;20061;-79
2022/02/19 02:16:12;;;;;;;3.17;0.60;;;;;;;5.60;58.43;95872.47;4831110;29;20046;-80
2022/02/19 02:18:40;;;;;;;3.65;0.38;;;;;;;5.64;58.19;95862.69;4825611;29;20776;-80
2022/02/19 02:21:07;;;;;;;2.25;0.30;;;;;;;5.62;57.11;95872.97;4823341;29;20054;-80
2022/02/19 02:23:35;;;;;;;0.75;0.55;;;;;;;5.63;58.09;95869.16;4825096;29;20050;-80
2022/02/19 02:26:03;;;;;;;3.40;0.85;;;;;;;5.64;58.16;95876.19;4822814;29;20057;-80
2022/02/19 02:28:30;;;;;;;2.38;0.40;;;;;;;5.68;57.42;95879.88;4824896;29;20110;-81
2022/02/19 02:30:57;;;;;;;3.35;0.60;;;;;;;5.70;57.94;95877.69;4818293;29;20054;-82
2022/02/19 02:33:25;;;;;;;1.75;0.40;;;;;;;5.73;56.99;95872.47;4824573;29;20042;-82
2022/02/19 02:35:54;;;;;;;3.10;0.77;;;;;;;5.73;58.03;95885.19;4824739;29;20107;-82
2022/02/19 02:38:22;;;;;;;1.25;0.45;;;;;;;5.78;57.75;95881.59;4822517;29;20058;-79
2022/02/19 02:40:50;;;;;;;1.42;0.30;;;;;;;5.78;57.78;95893.19;4825302;29;20533;-80
2022/02/19 02:43:17;;;;;;;3.45;0.57;;;;;;;5.74;58.47;95892.19;4822914;29;20055;-81
2022/02/19 02:45:44;;;;;;;1.85;0.50;;;;;;;5.74;59.31;95892.19;4823718;29;20092;-81
2022/02/19 02:48:11;;;;;;;0.77;0.30;;;;;;;5.68;60.14;95893.38;4824121;29;20051;-83
2022/02/19 02:50:39;;;;;;;0.82;0.32;;;;;;;5.65;60.92;95888.59;4823310;29;20518;-81
2022/02/19 02:53:14;;;;;;;2.95;0.60;;;;;;;5.53;61.75;95891.75;4814373;29;20064;-81
2022/02/19 02:55:43;;;;;;;2.05;0.35;;;;;;;5.50;62.18;95892.34;4831234;29;20512;-83
2022/02/19 02:58:13;;;;;;;3.67;0.60;;;;;;;5.55;61.91;95894.97;4821585;29;20058;-82
2022/02/19 03:00:40;;;;;;;2.28;0.55;;;;;;;5.49;61.88;95891.56;4832272;29;20141;-81
2022/02/19 03:03:14;;;;;;;2.63;0.50;;;;;;;5.48;62.82;95889.97;4817307;29;20402;-81
2022/02/19 03:05:41;;;;;;;2.72;0.80;;;;;;;5.46;63.32;95902.13;4829207;29;20107;-81
2022/02/19 03:08:08;;;;;;;3.55;0.60;;;;;;;5.46;62.14;95897.53;4823390;29;20053;-81
2022/02/19 03:10:34;;;;;;;3.35;0.60;;;;;;;5.47;63.02;95893.72;4822455;29;20055;-81
2022/02/19 03:13:01;;;;;;;2.65;0.80;;;;;;;5.48;63.33;95898.06;4838723;29;20053;-81
2022/02/19 03:15:31;;;;;;;3.08;0.30;;;;;;;5.45;63.23;95903.25;4841292;29;20053;-82
2022/02/19 03:17:58;;;;;;;1.95;0.40;;;;;;;5.45;64.34;95906.75;4840549;29;20113;-82
2022/02/19 03:20:33;;;;;;;3.90;0.70;;;;;;;5.40;64.01;95925.72;4841625;29;20050;-81
2022/02/19 03:23:00;;;;;;;4.63;0.70;;;;;;;5.37;64.71;95912.81;4839975;29;20058;-81
2022/02/19 03:25:27;;;;;;;4.18;0.50;;;;;;;5.40;64.97;95917.63;4848349;29;20046;-81
2022/02/19 03:27:56;;;;;;;3.08;0.50;;;;;;;5.41;65.13;95937.31;4840695;29;20057;-81
2022/02/19 03:30:25;;;;;;;2.75;0.65;;;;;;;5.37;65.56;95931.72;4845142;29;20093;-83
2022/02/19 03:32:55;;;;;;;1.85;0.50;;;;;;;5.34;65.43;95937.72;4841821;29;20054;-81
2022/02/19 03:35:22;;;;;;;4.10;0.30;;;;;;;5.26;66.03;95935.66;4842028;29;20061;-81
2022/02/19 03:37:50;;;;;;;4.20;0.73;;;;;;;5.24;66.40;95943.28;4841062;29;20130;-82
2022/02/19 03:40:17;;;;;;;1.38;0.50;;;;;;;5.25;67.07;95944.88;4834491;29;20117;-81
2022/02/19 03:42:44;;;;;;;3.35;0.70;;;;;;;5.24;67.17;95959.47;4841203;29;20076;-81
2022/02/19 03:45:22;;;;;;;3.40;0.63;;;;;;;5.23;67.75;95963.28;4839588;29;20563;-82
2022/02/19 03:47:48;;;;;;;2.10;0.55;;;;;;;5.16;68.14;95965.50;4821619;29;20094;-81
2022/02/19 03:50:17;;;;;;;0.82;0.30;;;;;;;5.09;68.38;95959.69;4834808;29;20142;-81
2022/02/19 03:52:44;;;;;;;2.72;0.50;;;;;;;4.98;69.90;95965.25;4824856;29;20426;-82
2022/02/19 03:55:11;;;;;;;2.17;0.35;;;;;;;4.96;70.57;95980.94;4823141;29;20450;-81
2022/02/19 03:57:38;;;;;;;2.35;0.38;;;;;;;4.93;70.90;95969.91;4825868;29;20050;-80
2022/02/19 04:00:07;;;;;;;0.88;0.35;;;;;;;4.92;71.05;95988.00;4828014;29;20051;-81
2022/02/19 04:02:38;;;;;;;2.22;0.55;;;;;;;4.87;69.67;95977.28;4826688;29;20403;-82
2022/02/19 04:05:07;;;;;;;1.17;0.40;;;;;;;4.86;69.84;95981.06;4823944;29;20053;-82
2022/02/19 04:07:39;;;;;;;1.85;0.40;;;;;;;4.78;68.73;95983.59;4831285;29;20510;-81
2022/02/19 04:10:08;;;;;;;1.02;0.30;;;;;;;4.74;68.50;95990.66;4824983;29;20069;-84
2022/02/19 04:12:35;;;;;;;2.80;0.32;;;;;;;4.66;67.51;95986.72;4826350;29;20054;-81
2022/02/19 04:15:02;;;;;;;1.17;0.40;;;;;;;4.64;65.67;95994.28;4828271;29;20051;-80
2022/02/19 04:17:30;;;;;;;3.15;0.88;;;;;;;4.65;65.15;96001.31;4843619;29;20046;-82
2022/02/19 04:19:58;;;;;;;3.85;0.60;;;;;;;4.57;65.79;96000.03;4850834;29;20052;-82
2022/02/19 04:22:25;;;;;;;2.10;0.40;;;;;;;4.56;65.45;96008.41;4842138;29;20046;-82
2022/02/19 04:24:53;;;;;;;2.58;0.52;;;;;;;4.56;64.93;96021.91;4843175;29;20072;-81
2022/02/19 04:27:21;;;;;;;4.60;0.50;;;;;;;4.53;64.87;96019.75;4836323;29;20054;-82
2022/02/19 04:29:49;;;;;;;2.72;0.60;;;;;;;4.51;65.34;96028.16;4847744;29;20066;-81
2022/02/19 04:32:16;;;;;;;1.33;0.30;;;;;;;4.43;65.61;96034.16;4845145;29;20062;-82
2022/02/19 04:34:42;;;;;;;1.20;0.20;;;;;;;4.38;65.90;96024.22;4846857;29;20140;-81
2022/02/19 04:37:11;;;;;;;3.55;0.47;;;;;;;4.39;66.06;96030.44;4848228;29;20050;-83
2022/02/19 04:39:38;;;;;;;3.88;0.40;;;;;;;4.35;66.42;96030.22;4846701;29;20125;-82
2022/02/19 04:42:14;;;;;;;1.55;0.68;;;;;;;4.38;67.79;96032.31;4845826;29;20517;-81
2022/02/19 04:44:41;;;;;;;0.85;0.22;;;;;;;4.26;70.12;96031.91;4843714;29;20045;-81
2022/02/19 04:47:09;;;;;;;1.13;0.20;;;;;;;4.17;71.80;96031.72;4840266;29;20058;-83
2022/02/19 04:49:36;;;;;;;0.75;0.20;;;;;;;4.19;72.95;96028.75;4825910;29;20126;-81
2022/02/19 04:52:03;;;;;;;0.70;0.20;;;;;;;4.08;74.18;96035.34;4826131;29;20069;-82
2022/02/19 04:54:30;;;;;;;1.58;0.30;;;;;;;3.98;74.79;96030.06;4826839;29;20053;-80
2022/02/19 04:56:58;;;;;;;1.77;0.40;;;;;;;3.98;75.62;96035.44;4826182;29;20148;-83
2022/02/19 04:59:26;;;;;;;1.45;0.20;;;;;;;3.92;76.23;96046.25;4824710;29;20712;-81
2022/02/19 05:01:53;;;;;;;3.75;0.55;;;;;;;3.90;76.36;96043.03;4825046;29;20134;-81
2022/02/19 05:04:19;;;;;;;6.15;0.40;;;;;;;3.88;76.94;96047.09;4824920;29;20061;-83
2022/02/19 05:06:46;;;;;;;1.83;0.30;;;;;;;3.83;77.44;96050.63;4824058;29;20528;-82
2022/02/19 05:09:13;;;;;;;1.95;0.60;;;;;;;3.85;77.51;96043.06;4824768;29;20057;-81
2022/02/19 05:11:40;;;;;;;2.75;0.65;;;;;;;3.81;77.59;96043.91;4825532;29;20591;-81
2022/02/19 05:14:07;;;;;;;1.75;0.40;;;;;;;3.82;77.63;96053.63;4823961;29;20057;-80
2022/02/19 05:16:35;;;;;;;2.28;0.30;;;;;;;3.82;77.10;96059.00;4834337;29;20057;-81
2022/02/19 05:19:03;;;;;;;1.15;0.40;;;;;;;3.82;77.45;96059.00;4843302;29;20050;-81
2022/02/19 05:21:29;;;;;;;0.57;0.35;;;;;;;3.83;77.44;96066.81;4842931;29;20150;-81
2022/02/19 05:23:56;;;;;;;3.72;0.52;;;;;;;3.82;77.55;96065.19;4841464;29;20050;-82
2022/02/19 05:26:24;;;;;;;2.22;0.38;;;;;;;3.80;77.25;96067.34;4843507;29;20046;-82
2022/02/19 05:28:51;;;;;;;1.95;0.50;;;;;;;3.82;77.63;96067.88;4842703;29;20046;-82
2022/02/19 05:31:18;;;;;;;1.63;0.50;;;;;;;3.79;77.35;96071.13;4842797;29;20544;-81
2022/02/19 05:33:46;;;;;;;1.48;0.40;;;;;;;3.79;76.82;96076.53;4844544;29;20395;-81
2022/02/19 05:36:14;;;;;;;3.35;0.70;;;;;;;3.77;76.95;96072.50;4842657;29;20054;-83
2022/02/19 05:38:41;;;;;;;1.83;0.50;;;;;;;3.78;76.96;96085.69;4835871;29;20045;-80
2022/02/19 05:41:08;;;;;;;2.65;0.60;;;;;;;3.81;76.18;96077.06;4843901;29;20574;-81
2022/02/19 05:43:34;;;;;;;7.07;0.70;;;;;;;3.83;76.40;96085.66;4837879;29;20045;-81
2022/02/19 05:46:01;;;;;;;2.83;0.70;;;;;;;3.84;75.76;96087.25;4844865;29;20059;-81
2022/02/19 05:48:28;;;;;;;5.70;0.60;;;;;;;3.87;75.60;96088.59;4824454;29;20048;-81
2022/02/19 05:50:56;;;;;;;3.08;0.68;;;;;;;3.86;75.61;96086.97;4831049;29;20133;-82
2022/02/19 05:53:23;;;;;;;3.97;0.80;;;;;;;3.91;75.20;96090.44;4825227;29;20050;-81
2022/02/19 05:55:54;;;;;;;1.58;0.70;;;;;;;3.95;74.65;96097.94;4823871;29;20053;-82
2022/02/19 05:58:21;;;;;;;2.67;0.90;;;;;;;3.95;74.54;96106.03;4820730;29;20130;-82
2022/02/19 06:00:48;;;;;;;3.10;0.98;;;;;;;3.99;74.23;96096.31;4849298;29;20514;-82
2022/02/19 06:03:15;;;;;;;2.85;0.52;;;;;;;4.02;73.92;96101.13;4825103;29;20058;-82
2022/02/19 06:05:45;;;;;;;2.03;0.77;;;;;;;4.00;74.28;96103.31;4841355;29;20049;-82
2022/02/19 06:08:13;;;;;;;8.02;0.88;;;;;;;4.02;73.90;96101.13;4825251;29;20050;-82
2022/02/19 06:10:40;;;;;;;3.75;0.70;;;;;;;4.04;73.51;96110.53;4826164;29;20594;-82
2022/02/19 06:13:07;;;;;;;8.25;0.98;;;;;;;4.01;73.28;96121.06;4823901;29;20057;-82
2022/02/19 06:15:36;;;;;;;6.03;0.75;;;;;;;4.04;73.23;96115.94;4827079;29;20045;-82
2022/02/19 06:18:05;;;;;;;4.55;0.55;;;;;;;4.02;73.12;96122.66;4819322;29;20081;-82
2022/02/19 06:20:32;;;;;;;4.10;0.85;;;;;;;4.00;73.17;96120.25;4826624;29;20526;-84
2022/02/19 06:23:00;;;;;;;5.97;0.70;;;;;;;4.02;72.96;96117.28;4824527;29;20085;-82
2022/02/19 06:25:29;;;;;;;2.15;0.68;;;;;;;4.04;73.07;96121.31;4821506;29;20105;-82
2022/02/19 06:27:57;;;;;;;6.22;0.60;;;;;;;4.05;72.57;96128.31;4848928;29;20062;-82
2022/02/19 06:30:23;;;;;;;9.00;1.15;;;;;;;4.08;72.55;96126.97;4823593;29;20409;-81
2022/02/19 06:32:51;;;;;;;2.58;0.52;;;;;;;4.12;71.54;96138.75;4826749;29;20058;-82
2022/02/19 06:35:19;;;;;;;5.57;0.80;;;;;;;4.13;71.96;96143.09;4818872;29;20050;-82
2022/02/19 06:37:49;;;;;;;2.95;0.80;;;;;;;4.15;71.58;96138.22;4852893;29;20054;-83
2022/02/19 06:40:17;;;;;;;4.07;0.80;;;;;;;4.20;70.86;96143.56;4819765;29;20114;-81
2022/02/19 06:42:45;;;;;;;2.53;0.75;;;;;;;4.19;70.80;96155.44;4849309;29;20105;-81
2022/02/19 06:45:12;;;;;;;3.53;0.93;;;;;;;4.26;70.89;96164.00;4854874;29;20054;-82
2022/02/19 06:47:44;;;;;;;6.43;1.05;;;;;;;4.29;70.93;96165.31;4826989;29;20133;-82
2022/02/19 06:50:11;;;;;;;4.25;0.85;;;;;;;4.34;70.87;96166.09;4825594;29;20054;-82
2022/02/19 06:52:38;;;;;;;4.78;0.88;;;;;;;4.35;70.90;96164.19;4825614;29;20109;-81
2022/02/19 06:55:08;;;;;;;3.67;1.08;;;;;;;4.35;70.51;96170.38;4835701;29;20058;-82
2022/02/19 06:57:36;;;;;;;8.13;0.98;;;;;;;4.38;71.52;96185.97;4824905;29;20070;-82
2022/02/19 07:00:06;;;;;;;5.55;1.30;;;;;;;4.39;71.06;96167.94;4823493;29;20423;-82
2022/02/19 07:02:41;;;;;;;4.47;0.90;;;;;;;4.34;71.64;96168.78;4830879;29;20079;-82
2022/02/19 07:05:10;;;;;;;5.43;0.60;;;;;;;4.33;71.63;96194.13;4825367;29;20063;-82
2022/02/19 07:07:44;;;;;;;3.17;1.00;;;;;;;4.40;71.43;96193.81;4840117;29;20106;-82
2022/02/19 07:10:16;;;;;;;5.25;0.80;;;;;;;4.48;71.74;96201.28;5051334;23;20420;-96
2022/02/19 07:12:53;;;;;;;6.35;1.40;;;;;;;4.53;70.97;96208.50;4860906;29;20057;-96
2022/02/19 07:16:02;;;;;;;4.45;0.88;;;;;;;4.51;71.14;96216.09;4870520;29;20060;-96
2022/02/19 07:18:32;;;;;;;4.88;1.00;;;;;;;4.65;71.25;96227.84;4857998;29;20128;-95
2022/02/19 07:21:38;;;;;;;5.00;1.17;;;;;;;4.70;70.31;96235.91;4851466;29;20038;-95
2022/02/19 07:24:07;;;;;;;5.35;0.70;;;;;;;4.72;69.50;96239.09;4853445;29;20054;-96
2022/02/19 07:26:52;;;;;;;5.03;1.15;;;;;;;4.71;69.76;96235.59;4851931;29;20054;-96
2022/02/19 07:29:42;;;;;;;5.43;0.93;;;;;;;4.75;69.42;96246.66;4859212;29;20033;-96
2022/02/19 08:01:42;;;;;;;7.53;1.08;;;;;;;5.17;63.65;96289.16;5460577;23;20052;-83
2022/02/19 08:12:26;;;;;;;3.80;0.90;;;;;;;5.32;63.29;96309.78;4881470;23;20117;-81
2022/02/19 08:14:53;;;;;;;7.38;0.95;;;;;;;5.35;64.22;96306.53;4870573;29;20070;-83
2022/02/19 08:19:55;;;;;;;4.97;1.17;;;;;;;5.40;62.19;96319.97;4797524;27;20474;-83
2022/02/19 08:22:22;;;;;;;4.75;0.80;;;;;;;5.35;58.92;96303.81;4855783;29;20158;-83
2022/02/19 08:25:05;;;;;;;4.00;0.90;;;;;;;5.43;59.79;96314.00;4914019;23;20125;-83
2022/02/19 08:27:53;;;;;;;4.63;0.90;;;;;;;5.46;59.60;96310.72;4862885;29;20140;-84
2022/02/19 08:30:40;;;;;;;6.45;1.35;;;;;;;5.49;60.27;96320.97;4863200;29;20424;-83
2022/02/19 08:33:09;;;;;;;6.35;1.10;;;;;;;5.57;60.09;96313.31;4859736;23;20101;-82
2022/02/19 08:35:37;;;;;;;5.35;0.80;;;;;;;5.66;59.71;96328.63;4860329;29;20079;-83
2022/02/19 08:40:44;;;;;;;6.82;0.95;;;;;;;5.81;58.88;96324.94;4983869;23;20049;-83
2022/02/19 08:43:12;;;;;;;5.43;1.00;;;;;;;5.91;61.50;96329.44;4871250;29;20113;-83
2022/02/19 08:45:40;;;;;;;7.70;1.00;;;;;;;6.05;60.44;96346.56;4877653;29;20105;-84
2022/02/19 08:50:49;;;;;;;3.88;1.15;;;;;;;6.36;58.14;96344.28;5040741;23;20032;-81
2022/02/19 08:53:21;;;;;;;4.45;0.95;;;;;;;6.66;59.39;96345.75;4875812;29;20064;-81
2022/02/19 08:55:51;;;;;;;5.25;1.45;;;;;;;7.25;56.84;96348.91;4875647;29;20052;-81
2022/02/19 08:58:20;;;;;;;6.82;1.23;;;;;;;7.81;56.32;96339.78;4909818;23;20041;-82
2022/02/19 09:03:23;;;;;;;5.45;0.98;;;;;;;8.26;52.14;96353.53;4909041;24;20045;-83
2022/02/19 09:11:11;;;;;;;4.07;0.77;;;;;;;7.51;51.56;96379.88;4957646;23;20050;-82
2022/02/19 09:13:38;;;;;;;4.32;0.77;;;;;;;7.18;49.75;96383.69;4891523;23;20121;-80
2022/02/19 09:16:05;;;;;;;8.73;1.10;;;;;;;7.47;49.81;96384.31;4850790;29;20053;-81
2022/02/19 09:18:37;;;;;;;2.90;0.80;;;;;;;7.19;49.85;96396.13;4846268;29;20074;-81
2022/02/19 09:21:04;;;;;;;4.77;1.13;;;;;;;7.43;51.95;96374.34;4845015;29;20050;-80
2022/02/19 09:23:31;;;;;;;7.22;1.30;;;;;;;7.28;49.90;96387.03;4839454;29;20049;-80
2022/02/19 09:25:57;;;;;;;6.53;1.40;;;;;;;7.50;50.57;96391.00;4855886;29;20387;-79
2022/02/19 09:28:28;;;;;;;3.63;1.10;;;;;;;7.76;48.28;96408.44;4842821;29;20053;-80
2022/02/19 09:30:56;;;;;;;4.75;1.00;;;;;;;7.65;46.34;96408.91;4848135;29;20057;-81
2022/02/19 09:33:23;;;;;;;3.80;0.63;;;;;;;7.28;44.66;96399.78;4849428;29;20466;-81
2022/02/19 09:35:50;;;;;;;4.07;1.00;;;;;;;7.79;46.07;96396.22;4844131;29;20408;-81
2022/02/19 09:38:19;;;;;;;4.47;0.90;;;;;;;8.39;45.89;96407.00;4846025;29;20054;-81
2022/02/19 09:40:46;;;;;;;4.97;1.15;;;;;;;9.01;45.67;96412.75;4846192;29;20114;-79
2022/02/19 09:43:13;;;;;;;4.28;0.82;;;;;;;9.08;45.58;96413.13;4842828;29;20057;-80
2022/02/19 09:45:42;;;;;;;6.80;1.00;;;;;;;9.10;44.91;96416.34;4842426;29;20140;-79
2022/02/19 09:48:12;;;;;;;4.88;0.70;;;;;;;8.57;42.18;96425.09;4844195;29;20050;-82
2022/02/19 09:50:39;;;;;;;7.85;1.35;;;;;;;8.41;43.65;96423.00;4841806;29;20144;-80
2022/02/19 09:53:06;;;;;;;4.47;0.88;;;;;;;8.67;42.44;96432.22;4844673;29;20516;-80
2022/02/19 09:55:33;;;;;;;5.63;0.80;;;;;;;8.99;42.95;96431.25;4842382;29;20130;-80
2022/02/19 09:58:00;;;;;;;6.00;1.02;;;;;;;9.06;43.64;96420.78;4845166;29;20087;-81
2022/02/19 10:00:38;;;;;;;3.40;0.90;;;;;;;9.70;41.49;96428.75;4836003;29;20675;-80
2022/02/19 10:03:11;;;;;;;3.60;0.60;;;;;;;9.45;39.74;96437.53;4852335;29;20052;-81
2022/02/19 10:05:38;;;;;;;3.95;1.10;;;;;;;9.41;43.96;96434.66;4842069;29;20053;-80
2022/02/19 10:08:06;;;;;;;4.72;1.50;;;;;;;8.98;46.63;96429.66;4839895;29;20054;-80
2022/02/19 10:10:35;;;;;;;2.88;0.75;;;;;;;9.39;44.28;96439.56;4844536;29;20052;-80
2022/02/19 10:13:02;;;;;;;1.98;0.93;;;;;;;10.37;41.25;96441.47;4844030;29;20075;-81
2022/02/19 10:15:41;;;;;;;4.05;0.95;;;;;;;10.95;37.82;96440.34;4846896;29;20098;-80
2022/02/19 10:18:27;;;;;;;5.63;1.40;;;;;;;11.51;36.96;96441.34;4845832;29;20057;-82
2022/02/19 10:21:10;;;;;;;5.60;0.90;;;;;;;10.47;36.55;96446.63;4847462;29;20160;-81
2022/02/19 10:23:39;;;;;;;2.42;0.75;;;;;;;10.29;38.05;96444.97;4847959;29;20066;-79
2022/02/19 10:26:07;;;;;;;3.72;0.82;;;;;;;9.25;38.65;96455.16;4847809;29;20046;-81
2022/02/19 10:28:34;;;;;;;6.97;2.78;;;;;;;9.12;39.29;96451.34;4847629;29;20069;-81
2022/02/19 10:31:15;;;;;;;4.78;0.80;;;;;;;8.75;39.79;96463.28;4847408;29;20052;-81
2022/02/19 10:33:44;;;;;;;4.15;1.02;;;;;;;9.11;40.79;96447.81;4823462;29;20061;-80
2022/02/19 10:36:15;;;;;;;4.93;0.95;;;;;;;9.04;41.26;96455.59;4824942;29;20466;-80
2022/02/19 10:38:56;;;;;;;5.30;1.05;;;;;;;9.47;40.63;96455.16;4825618;29;20054;-79
2022/02/19 10:41:33;;;;;;;3.22;1.10;;;;;;;9.45;37.25;96460.13;4824742;29;20468;-80
2022/02/19 10:44:18;;;;;;;2.65;0.60;;;;;;;9.13;40.66;96463.81;4824448;29;20107;-81
2022/02/19 10:46:45;;;;;;;5.45;0.80;;;;;;;9.13;39.57;96466.53;4826435;29;20122;-80
2022/02/19 10:49:13;;;;;;;3.50;0.77;;;;;;;9.56;38.32;96466.91;4825123;29;20054;-81
2022/02/19 10:51:42;;;;;;;3.70;0.75;;;;;;;9.87;38.03;96460.72;4825167;29;20072;-83
2022/02/19 10:54:10;;;;;;;8.02;1.13;;;;;;;10.20;36.88;96458.50;4831355;29;20053;-82
2022/02/19 10:56:38;;;;;;;4.40;1.10;;;;;;;10.67;39.75;96456.16;4829614;29;20050;-81
2022/02/19 10:59:06;;;;;;;5.07;1.05;;;;;;;10.84;37.85;96460.84;4826321;29;20050;-80
2022/02/19 11:01:40;;;;;;;7.68;1.15;;;;;;;10.68;38.33;96461.28;4823892;29;20054;-81
2022/02/19 11:04:07;;;;;;;5.10;1.05;;;;;;;10.76;36.35;96469.81;4824892;29;20060;-81
2022/02/19 11:06:39;;;;;;;5.25;1.38;;;;;;;10.19;36.89;96467.78;4824469;29;20173;-82
2022/02/19 11:09:08;;;;;;;3.60;0.45;;;;;;;9.64;39.79;96468.06;4824645;29;20057;-81
2022/02/19 11:11:36;;;;;;;4.47;0.93;;;;;;;9.55;38.75;96465.31;4825433;29;20058;-81
2022/02/19 11:14:04;;;;;;;5.32;0.70;;;;;;;9.67;37.99;96465.53;4830635;29;20060;-80
2022/02/19 11:16:32;;;;;;;3.78;0.85;;;;;;;9.98;39.36;96462.06;4824559;29;20101;-81
2022/02/19 11:18:59;;;;;;;5.05;1.00;;;;;;;9.63;40.80;96467.28;4828973;29;20054;-80
2022/02/19 11:21:27;;;;;;;5.07;0.95;;;;;;;9.90;42.88;96450.00;4822757;29;20495;-81
2022/02/19 11:23:57;;;;;;;3.38;0.95;;;;;;;9.81;38.47;96465.47;4820613;29;20066;-80
2022/02/19 11:26:24;;;;;;;2.67;0.70;;;;;;;9.54;37.69;96458.25;4832674;29;20506;-80
2022/02/19 11:28:52;;;;;;;3.28;0.70;;;;;;;9.68;37.64;96455.47;4823029;29;20054;-81
2022/02/19 11:31:20;;;;;;;4.13;0.82;;;;;;;9.64;37.44;96468.06;4824009;29;20049;-80
2022/02/19 11:33:55;;;;;;;4.90;0.90;;;;;;;9.56;38.87;96461.47;4824758;29;20066;-81
2022/02/19 11:36:26;;;;;;;3.75;1.40;;;;;;;9.68;41.08;96448.13;4823040;29;20054;-79
2022/02/19 11:38:55;;;;;;;3.30;0.82;;;;;;;9.82;35.75;96453.50;4822119;29;20106;-79
2022/02/19 11:41:35;;;;;;;3.67;0.82;;;;;;;9.89;37.72;96453.84;4819567;29;20051;-79
2022/02/19 11:44:03;;;;;;;3.13;0.80;;;;;;;9.89;38.73;96444.88;4822812;29;20050;-79
2022/02/19 11:46:35;;;;;;;2.47;0.68;;;;;;;9.83;37.73;96448.84;4839487;29;20465;-79
2022/02/19 11:49:20;;;;;;;6.45;0.93;;;;;;;9.59;37.40;96452.69;4841097;29;20086;-80
2022/02/19 11:51:47;;;;;;;5.22;0.80;;;;;;;9.36;38.58;96448.34;4839451;29;20054;-80
2022/02/19 11:54:27;;;;;;;4.38;1.05;;;;;;;8.92;40.75;96444.44;4838165;29;20049;-80
2022/02/19 11:56:54;;;;;;;7.50;1.20;;;;;;;9.17;40.94;96453.16;4839403;29;20054;-81
2022/02/19 11:59:23;;;;;;;7.60;1.52;;;;;;;9.41;42.42;96448.25;4838558;29;20077;-79
2022/02/19 12:02:14;;;;;;;3.75;0.80;;;;;;;9.82;39.87;96442.63;4823004;29;20467;-80
2022/02/19 12:04:42;;;;;;;6.10;0.90;;;;;;;9.99;40.65;96430.22;4822436;29;20086;-79
2022/02/19 12:07:14;;;;;;;4.18;1.20;;;;;;;10.22;39.99;96433.69;4821598;29;20054;-79
2022/02/19 12:10:04;;;;;;;5.78;1.15;;;;;;;10.34;40.43;96421.13;4823235;29;20407;-79
2022/02/19 12:12:51;;;;;;;4.20;1.27;;;;;;;10.69;40.08;96432.91;4820129;29;20054;-79
2022/02/19 12:15:28;;;;;;;2.90;1.00;;;;;;;11.10;41.96;96426.28;4837151;29;20409;-80
2022/02/19 12:17:54;;;;;;;6.22;1.23;;;;;;;11.47;40.00;96413.13;4839319;29;20057;-80
2022/02/19 12:20:29;;;;;;;4.10;1.00;;;;;;;11.28;38.53;96420.84;4840359;29;20049;-79
2022/02/19 12:22:58;;;;;;;6.00;1.23;;;;;;;11.59;40.86;96428.81;4840325;29;20046;-79
2022/02/19 12:26:07;;;;;;;5.95;1.15;;;;;;;11.70;36.86;96432.84;4837974;29;20122;-80
2022/02/19 12:28:36;;;;;;;3.30;0.60;;;;;;;10.90;34.86;96443.22;4824623;29;20115;-80
2022/02/19 12:31:15;;;;;;;2.33;0.82;;;;;;;10.39;39.29;96423.72;4840176;29;20070;-79
2022/02/19 12:33:41;;;;;;;4.68;1.40;;;;;;;10.17;40.04;96426.47;4842593;29;20168;-80
2022/02/19 12:36:09;;;;;;;6.25;1.25;;;;;;;9.96;39.18;96411.78;4827156;29;20418;-79
2022/02/19 12:38:36;;;;;;;6.90;1.25;;;;;;;9.61;39.37;96417.84;4826220;29;20053;-79
2022/02/19 12:41:04;;;;;;;4.95;0.90;;;;;;;9.38;40.06;96421.66;4842472;29;20553;-80
2022/02/19 12:43:31;;;;;;;5.53;0.80;;;;;;;9.15;37.57;96418.16;4842040;29;20050;-80
2022/02/19 12:45:58;;;;;;;4.53;1.10;;;;;;;9.15;41.91;96418.16;4819848;29;20414;-82